Home > Products > Valid Products > TAF

000
FTUS43 KILX 251500 AAC
TAFCMI
TAF AMD
KCMI 251545Z 2516/2612 28006KT 4SM BR BKN005
     FM251600 29005KT P6SM SCT015
     FM251900 31010KT P6SM SKC
     FM252300 31005KT P6SM SKC=



000
FTUS43 KILX 251500 AAD
TAFPIA
TAF AMD
KPIA 251545Z 2516/2612 29005KT 3SM BR OVC002
     FM251600 31005KT 5SM BR SCT015
     FM251700 31010KT P6SM SKC
     FM252300 31005KT P6SM SKC=



000
FTUS43 KILX 251500 AAC
TAFDEC
TAF AMD
KDEC 251543Z 2516/2612 28005KT 4SM BR OVC005
     FM251600 29005KT P6SM SCT015
     FM251800 31010KT P6SM SKC
     FM252300 31004KT P6SM SKC=



000
FTUS43 KILX 251500 AAB
TAFSPI
TAF AMD
KSPI 251542Z 2516/2612 27005KT 3SM BR SCT008
     FM251600 29008KT P6SM SCT015
     FM252300 33004KT P6SM SKC=



000
FTUS43 KILX 251500 AAC
TAFBMI
TAF AMD
KBMI 251541Z 2516/2612 29008KT 4SM BR SCT002
     FM251700 31008KT P6SM SCT015
     FM252300 31005KT P6SM SKC=



000
FTUS43 KILX 251500 AAC
TAFPIA
TAF AMD
KPIA 251510Z 2515/2612 28005KT 1/2SM FG OVC002
     FM251600 29005KT 2SM BR OVC002
     FM251700 31005KT 5SM BR SCT015
     FM251800 31010KT P6SM SKC
     FM252300 31005KT P6SM SKC=



000
FTUS43 KILX 251400 AAB
TAFCMI
TAF AMD
KCMI 251403Z 2514/2612 27006KT 6SM BR SKC
     FM251500 27006KT 4SM BR BKN004
     FM251700 29005KT 5SM BR SCT015
     FM251900 31010KT P6SM SKC
     FM252300 31005KT P6SM SKC=



000
FTUS43 KILX 251300 AAB
TAFDEC
TAF AMD
KDEC 251359Z 2514/2612 29005KT 2SM BR OVC004
     FM251600 29005KT 1SM BR OVC008
     FM251700 29005KT 5SM BR SCT015
     FM251800 31010KT P6SM SKC
     FM252300 31004KT P6SM SKC=



000
FTUS43 KILX 251300 AAA
TAFSPI
TAF AMD
KSPI 251357Z 2514/2612 23005KT 3SM BR OVC005
     FM251600 27005KT 5SM BR OVC008
     FM251800 31008KT P6SM SKC
     FM252300 33004KT P6SM SKC=



000
FTUS43 KILX 251300 AAB
TAFBMI
TAF AMD
KBMI 251356Z 2514/2612 26005KT 1/4SM FG OVC001
     FM251600 27005KT 1SM BR OVC002
     FM251700 29005KT 5SM BR SCT015
     FM251800 31010KT P6SM SKC
     FM252300 31005KT P6SM SKC=



000
FTUS43 KILX 251300 AAB
TAFPIA
TAF AMD
KPIA 251355Z 2514/2612 VRB03KT 1/4SM FG OVC002
     FM251600 27005KT 1SM BR OVC002
     FM251700 29005KT 5SM BR SCT015
     FM251800 31010KT P6SM SKC
     FM252300 31005KT P6SM SKC=



000
FTUS43 KILX 251200 CCA
TAFBMI
TAF COR
KBMI 251253Z 2513/2612 27006KT 3/4SM BR SCT001 OVC005
      TEMPO 2513/2514 1/4SM FG OVC002
     FM251600 31008KT P6SM SCT015
     FM251700 31010KT P6SM SKC
     FM252300 31005KT P6SM SKC=



000
FTUS43 KILX 251200 AAA
TAFCMI
TAF AMD
KCMI 251251Z 2513/2612 28005KT 2SM BR SKC
     FM251400 28006KT 2SM BR OVC006
      TEMPO 2514/2515 1SM BR BKN004
     FM251700 29008KT P6SM SCT015
     FM251900 31010KT P6SM SKC
     FM252300 31005KT P6SM SKC=



000
FTUS43 KILX 251200 AAA
TAFBMI
TAF AMD
KBMI 251248Z 2513/2612 27006KT 3/4SM BR SCT001 OVC005
      TEMPO 2513/2514 1/2SM FG OVC002
     FM251600 31008KT P6SM SCT015
     FM251700 31010KT P6SM SKC
     FM252300 31005KT P6SM SKC=



000
FTUS43 KILX 251200 AAA
TAFDEC
TAF AMD
KDEC 251201Z 2512/2612 28006KT P6SM SKC
     FM251300 27006KT P6SM OVC015
      TEMPO 2513/2515 3SM BR BKN008
     FM251700 29008KT P6SM SCT015
     FM251800 30008KT P6SM SKC
     FM252300 31004KT P6SM SKC=



000
FTUS43 KILX 251200 AAA
TAFDEC
TAF AMD
KDEC 251201Z 2512/2612 28006KT P6SM SKC
     FM251300 27006KT P6SM OVC015
      TEMPO 2513/2515 3SM BR BKN008
     FM251700 29008KT P6SM SCT015
     FM251800 30008KT P6SM SKC
     FM252300 31004KT P6SM SKC=



000
FTUS43 KILX 251100 AAA
TAFPIA
TAF AMD
KPIA 251149Z 2512/2612 VRB03KT 1/2SM FG OVC002
      TEMPO 2512/2514 1/4SM FG VV002
     FM251400 VRB04KT 3SM BR SCT006 BKN015
      TEMPO 2514/2515 1SM BR BKN004
     FM251500 31008KT P6SM SCT015
     FM251600 31010KT P6SM SKC
     FM252300 31005KT P6SM SKC=



000
FTUS43 KILX 251100 AAA
TAFPIA
TAF AMD
KPIA 251149Z 2512/2612 VRB03KT 1/2SM FG OVC002
      TEMPO 2512/2514 1/4SM FG VV002
     FM251400 VRB04KT 3SM BR SCT006 BKN015
      TEMPO 2514/2515 1SM BR BKN004
     FM251500 31008KT P6SM SCT015
     FM251600 31010KT P6SM SKC
     FM252300 31005KT P6SM SKC=



000
FTUS43 KILX 251100
TAFDEC
TAF
KDEC 251129Z 2512/2612 27006KT P6SM OVC015
      TEMPO 2512/2515 3SM BR BKN008
     FM251700 29008KT P6SM SCT015
     FM251800 30008KT P6SM SKC
     FM252300 31004KT P6SM SKC=



000
FTUS43 KILX 251100
TAFDEC
TAF
KDEC 251129Z 2512/2612 27006KT P6SM OVC015
      TEMPO 2512/2515 3SM BR BKN008
     FM251700 29008KT P6SM SCT015
     FM251800 30008KT P6SM SKC
     FM252300 31004KT P6SM SKC=



000
FTUS43 KILX 251100
TAFSPI
TAF
KSPI 251129Z 2512/2612 27004KT 6SM BR OVC012
      TEMPO 2512/2516 3SM BR BKN008
     FM251700 31007KT P6SM SCT015
     FM251800 31008KT P6SM SKC
     FM252300 33004KT P6SM SKC=



000
FTUS43 KILX 251100
TAFCMI
TAF
KCMI 251129Z 2512/2612 28004KT 3SM BR SCT015
     FM251300 28005KT 2SM BR OVC012
      TEMPO 2513/2515 1SM BR BKN008
     FM251700 29008KT P6SM SCT015
     FM251900 31010KT P6SM SKC
     FM252300 31005KT P6SM SKC=



000
FTUS43 KILX 251100
TAFBMI
TAF
KBMI 251129Z 2512/2612 27006KT 6SM BR OVC004
      TEMPO 2512/2515 2SM BR OVC002
     FM251600 31008KT P6SM SCT015
     FM251700 31010KT P6SM SKC
     FM252300 31005KT P6SM SKC=



000
FTUS43 KILX 251100
TAFPIA
TAF
KPIA 251129Z 2512/2612 VRB03KT 1/2SM FG OVC002
     FM251400 VRB04KT 3SM BR SCT006 BKN015
      TEMPO 2514/2515 1SM BR BKN004
     FM251500 31008KT P6SM SCT015
     FM251600 31010KT P6SM SKC
     FM252300 31005KT P6SM SKC=



000
FTUS43 KILX 251100
TAFSPI
TAF
KSPI 251129Z 2512/2612 27004KT 6SM BR OVC012
      TEMPO 2512/2516 3SM BR BKN008
     FM251700 31007KT P6SM SCT015
     FM251800 31008KT P6SM SKC
     FM252300 33004KT P6SM SKC=



000
FTUS43 KILX 251100
TAFCMI
TAF
KCMI 251129Z 2512/2612 28004KT 3SM BR SCT015
     FM251300 28005KT 2SM BR OVC012
      TEMPO 2513/2515 1SM BR BKN008
     FM251700 29008KT P6SM SCT015
     FM251900 31010KT P6SM SKC
     FM252300 31005KT P6SM SKC=



000
FTUS43 KILX 251100
TAFPIA
TAF
KPIA 251129Z 2512/2612 VRB03KT 1/2SM FG OVC002
     FM251400 VRB04KT 3SM BR SCT006 BKN015
      TEMPO 2514/2515 1SM BR BKN004
     FM251500 31008KT P6SM SCT015
     FM251600 31010KT P6SM SKC
     FM252300 31005KT P6SM SKC=



000
FTUS43 KILX 251100
TAFBMI
TAF
KBMI 251129Z 2512/2612 27006KT 6SM BR OVC004
      TEMPO 2512/2515 2SM BR OVC002
     FM251600 31008KT P6SM SCT015
     FM251700 31010KT P6SM SKC
     FM252300 31005KT P6SM SKC=



000
FTUS43 KILX 251000 AAC
TAFBMI
TAF AMD
KBMI 251054Z 2511/2606 20007KT 6SM BR SCT025
      TEMPO 2511/2513 3SM BR BKN012
     FM251400 31008KT P6SM SCT015
     FM251800 31010KT P6SM SKC
     FM252300 32004KT P6SM SKC=



000
FTUS43 KILX 251000 AAC
TAFBMI
TAF AMD
KBMI 251054Z 2511/2606 20007KT 6SM BR SCT025
      TEMPO 2511/2513 3SM BR BKN012
     FM251400 31008KT P6SM SCT015
     FM251800 31010KT P6SM SKC
     FM252300 32004KT P6SM SKC=



000
FTUS43 KILX 251000 AAD
TAFPIA
TAF AMD
KPIA 251053Z 2511/2606 VRB03KT 6SM BR OVC004
      TEMPO 2511/2512 3SM BR
     FM251200 VRB03KT 3/4SM BR OVC004
      TEMPO 2512/2513 1/4SM FG VV002
     FM251400 31008KT P6SM SCT015
     FM251800 32008KT P6SM SKC
     FM252300 VRB04KT P6SM SKC=



000
FTUS43 KILX 251000 AAD
TAFPIA
TAF AMD
KPIA 251053Z 2511/2606 VRB03KT 6SM BR OVC004
      TEMPO 2511/2512 3SM BR
     FM251200 VRB03KT 3/4SM BR OVC004
      TEMPO 2512/2513 1/4SM FG VV002
     FM251400 31008KT P6SM SCT015
     FM251800 32008KT P6SM SKC
     FM252300 VRB04KT P6SM SKC=



000
FTUS43 KILX 251000 AAA
TAFDEC
TAF AMD
KDEC 251051Z 2511/2606 27006KT P6SM OVC015
      TEMPO 2511/2514 3SM BR
     FM251400 29008KT P6SM SCT015
     FM251800 32008KT P6SM SKC
     FM252300 33004KT P6SM SKC=



000
FTUS43 KILX 251000 AAB
TAFSPI
TAF AMD
KSPI 251051Z 2511/2606 27004KT P6SM OVC015
      TEMPO 2511/2513 3SM BR
     FM251400 30008KT P6SM SCT015
     FM251800 32008KT P6SM SKC
     FM252300 33004KT P6SM SKC=



000
FTUS43 KILX 251000 AAB
TAFSPI
TAF AMD
KSPI 251051Z 2511/2606 27004KT P6SM OVC015
      TEMPO 2511/2513 3SM BR
     FM251400 30008KT P6SM SCT015
     FM251800 32008KT P6SM SKC
     FM252300 33004KT P6SM SKC=



000
FTUS43 KILX 251000 AAA
TAFDEC
TAF AMD
KDEC 251051Z 2511/2606 27006KT P6SM OVC015
      TEMPO 2511/2514 3SM BR
     FM251400 29008KT P6SM SCT015
     FM251800 32008KT P6SM SKC
     FM252300 33004KT P6SM SKC=



000
FTUS43 KILX 251000 AAB
TAFBMI
TAF AMD
KBMI 251007Z 2510/2606 20007KT 6SM BR SCT025
     FM251100 25005KT 2SM BR SCT025
      TEMPO 2511/2513 1SM BR SCT002
     FM251400 31008KT P6SM SCT015
     FM251800 31010KT P6SM SKC
     FM252300 32004KT P6SM SKC=



000
FTUS43 KILX 251000 AAA
TAFSPI
TAF AMD
KSPI 251007Z 2510/2606 20005KT 5SM BR SCT025
     FM251100 25004KT 2SM BR SCT025
      TEMPO 2511/2513 1SM BR SCT002
     FM251400 30008KT P6SM SCT015
     FM251800 32008KT P6SM SKC
     FM252300 33004KT P6SM SKC=



000
FTUS43 KILX 250900 AAC
TAFPIA
TAF AMD
KPIA 250934Z 2510/2606 VRB03KT 6SM BR OVC015
      TEMPO 2510/2511 3SM BR SCT008 OVC015
     FM251100 VRB03KT 3/4SM BR SCT002 OVC008
      TEMPO 2511/2513 1/4SM FG VV002
     FM251400 31008KT P6SM SCT015
     FM251800 32008KT P6SM SKC
     FM252300 VRB04KT P6SM SKC=



000
FTUS43 KILX 250800 AAA
TAFBMI
TAF AMD
KBMI 250802Z 2508/2606 20007KT 6SM BR SCT025
     FM251000 25005KT 2SM BR SCT025
      TEMPO 2510/2513 1SM BR SCT002
     FM251400 31008KT P6SM SCT015
     FM251800 31010KT P6SM SKC
     FM252300 32004KT P6SM SKC=



000
FTUS43 KILX 250800 AAB
TAFPIA
TAF AMD
KPIA 250801Z 2508/2606 23004KT 6SM BR SCT025
     FM250900 25003KT 3/4SM BR SCT002 SCT025
      TEMPO 2509/2513 1/4SM FG VV002
     FM251400 31008KT P6SM SCT015
     FM251800 32008KT P6SM SKC
     FM252300 VRB04KT P6SM SKC=



000
FTUS43 KILX 250700 AAA
TAFPIA
TAF AMD
KPIA 250724Z 2507/2606 20005KT P6SM SCT025 BKN035
     FM250800 23004KT 4SM BR SCT025
     FM250900 25003KT 3/4SM BR SCT002 SCT025
      TEMPO 2509/2513 1/4SM FG VV002
     FM251400 31008KT P6SM SCT015
     FM251800 32008KT P6SM SKC
     FM252300 VRB04KT P6SM SKC=



000
FTUS43 KILX 250500
TAFSPI
TAF
KSPI 250528Z 2506/2606 20005KT P6SM SCT025 OVC040
     FM251000 25004KT 2SM BR SCT025
      TEMPO 2510/2514 1SM BR SCT002
     FM251400 30008KT P6SM SCT015
     FM251800 32008KT P6SM SKC
     FM252300 33004KT P6SM SKC=



000
FTUS43 KILX 250500
TAFDEC
TAF
KDEC 250528Z 2506/2606 20005KT P6SM SCT025 BKN035
     FM251100 24003KT 2SM BR SCT025
      TEMPO 2511/2514 1SM BR SCT002
     FM251400 29008KT P6SM SCT015
     FM251800 32008KT P6SM SKC
     FM252300 33004KT P6SM SKC=



000
FTUS43 KILX 250500
TAFPIA
TAF
KPIA 250528Z 2506/2606 20005KT P6SM SCT025 BKN035
     FM250700 23004KT 4SM BR SCT025
     FM250900 25003KT 3/4SM BR SCT002 SCT025
      TEMPO 2509/2513 1/4SM FG VV002
     FM251400 31008KT P6SM SCT015
     FM251800 32008KT P6SM SKC
     FM252300 VRB04KT P6SM SKC=



000
FTUS43 KILX 250500
TAFBMI
TAF
KBMI 250528Z 2506/2606 20007KT 6SM BR SCT025 BKN040
     FM250800 25005KT 2SM BR SCT025
      TEMPO 2509/2513 1SM BR SCT002
     FM251400 31008KT P6SM SCT015
     FM251800 31010KT P6SM SKC
     FM252300 32004KT P6SM SKC=



000
FTUS43 KILX 250500
TAFCMI
TAF
KCMI 250528Z 2506/2606 19006KT P6SM SCT025 BKN035
     FM251100 24003KT 2SM BR SCT025
     FM251400 29008KT P6SM SCT015
     FM251800 31010KT P6SM SKC
     FM252300 31005KT P6SM SKC=



000
FTUS43 KILX 250400 AAD
TAFBMI
TAF AMD
KBMI 250456Z 2505/2524 20007KT 5SM BR SCT025 BKN040
     FM250800 25005KT 2SM BR SCT025
     FM251400 31008KT P6SM SCT015
     FM251800 31010KT P6SM SKC
     FM252300 32004KT P6SM SKC=



000
FTUS43 KILX 250400 AAA
TAFSPI
TAF AMD
KSPI 250456Z 2505/2524 20005KT P6SM SCT025 OVC040
     FM251000 25004KT 2SM BR SCT025
     FM251400 30008KT P6SM SCT015
     FM251800 32008KT P6SM SKC
     FM252300 33004KT P6SM SKC=



000
FTUS43 KILX 250400 AAA
TAFPIA
TAF AMD
KPIA 250455Z 2505/2524 20005KT P6SM SCT025 BKN035
     FM250700 23004KT 4SM BR SCT025
     FM250900 25003KT 3/4SM BR SCT025
     FM251400 31008KT P6SM SCT015
     FM251800 32008KT P6SM SKC=



000
FTUS43 KILX 250200 AAC
TAFBMI
TAF AMD
KBMI 250216Z 2502/2524 19008KT 4SM BR SCT025 BKN040
      TEMPO 2504/2508 BKN025
     FM250800 25005KT 2SM BR SCT025
     FM251400 31008KT P6SM SCT015
     FM251800 31010KT P6SM SKC=



000
FTUS43 KILX 250100 AAB
TAFBMI
TAF AMD
KBMI 250146Z 2502/2524 19008KT P6SM SCT025 BKN040
      TEMPO 2504/2508 BKN025
     FM251000 25005KT 2SM BR SCT025
     FM251400 31008KT P6SM SCT015
     FM251800 31010KT P6SM SKC=



000
FTUS43 KILX 250100 AAA
TAFCMI
TAF AMD
KCMI 250109Z 2501/2524 20006KT 4SM BR BKN250
     FM250400 21005KT P6SM SCT025
     FM251100 24003KT 2SM BR SCT025
     FM251400 29008KT P6SM SCT015
     FM251800 31010KT P6SM SKC=



000
FTUS43 KILX 250000 AAA
TAFBMI
TAF AMD
KBMI 250042Z 2501/2524 19007KT 4SM BR SCT250
     FM250200 21008KT P6SM BKN250
     FM250400 21006KT P6SM SCT025
      TEMPO 2504/2508 BKN025
     FM251000 25005KT 2SM BR SCT025
     FM251400 31008KT P6SM SCT015
     FM251800 31010KT P6SM SKC=



000
FTUS43 KILX 242300
TAFCMI
TAF
KCMI 242337Z 2500/2524 22007KT P6SM BKN250
     FM250500 21005KT P6SM SCT025
     FM251100 24003KT 2SM BR SCT025
     FM251400 29008KT P6SM SCT015
     FM251800 31010KT P6SM SKC=



000
FTUS43 KILX 242300
TAFPIA
TAF
KPIA 242337Z 2500/2524 19008KT P6SM BKN250
     FM250200 21005KT P6SM SCT025 BKN040
      TEMPO 2503/2507 BKN025
     FM250700 25004KT 4SM BR SCT025
     FM250900 25003KT 1SM BR SCT025
     FM251400 31008KT P6SM SCT015
     FM251800 32008KT P6SM SKC=



000
FTUS43 KILX 242300
TAFBMI
TAF
KBMI 242337Z 2500/2524 23008KT P6SM BKN250
     FM250400 21006KT P6SM SCT025
      TEMPO 2504/2508 BKN025
     FM251000 25005KT 2SM BR SCT025
     FM251400 31008KT P6SM SCT015
     FM251800 31010KT P6SM SKC=



000
FTUS43 KILX 242300
TAFDEC
TAF
KDEC 242337Z 2500/2524 20006KT P6SM SCT250
     FM250500 21005KT P6SM SCT025
     FM251100 24003KT 2SM BR SCT025
     FM251400 29008KT P6SM SCT015
     FM251800 32008KT P6SM SKC=



000
FTUS43 KILX 242300
TAFSPI
TAF
KSPI 242337Z 2500/2524 19005KT P6SM BKN250
     FM250400 21005KT P6SM SCT025
      TEMPO 2504/2508 BKN025
     FM251000 25004KT 2SM BR SCT025
     FM251400 30008KT P6SM SCT015
     FM251800 32008KT P6SM SKC=



000
FTUS43 KILX 241700
TAFPIA
TAF
KPIA 241733Z 2418/2518 23008KT 5SM BR SCT015 BKN250
     FM241900 21008KT P6SM SCT015 BKN250
     FM250200 21005KT 3SM BR BKN025
     FM250800 25003KT 1SM BR SCT025
     FM251400 31008KT P6SM SCT015=



000
FTUS43 KILX 241700
TAFSPI
TAF
KSPI 241733Z 2418/2518 24008KT 4SM BR OVC003
     FM241900 23008KT P6SM SCT015 BKN250
     FM250400 21005KT 4SM BR BKN025
     FM251000 25003KT 2SM BR SCT025
     FM251400 30008KT P6SM SCT015=



000
FTUS43 KILX 241700
TAFCMI
TAF
KCMI 241733Z 2418/2518 23008KT P6SM SCT025
     FM250500 21005KT 4SM BR BKN025
     FM251100 24003KT 2SM BR SCT025
     FM251400 29008KT P6SM SCT015=



000
FTUS43 KILX 241700
TAFBMI
TAF
KBMI 241733Z 2418/2518 23008KT P6SM SCT025 BKN250
     FM250400 21005KT 4SM BR BKN025
     FM251000 25003KT 2SM BR SCT025
     FM251400 31008KT P6SM SCT015=



000
FTUS43 KILX 241700
TAFDEC
TAF
KDEC 241733Z 2418/2518 23008KT P6SM SCT025
     FM250500 21005KT 4SM BR BKN025
     FM251000 24003KT 2SM BR SCT025
     FM251400 29008KT P6SM SCT015=



000
FTUS43 KILX 241500 AAC
TAFSPI
TAF AMD
KSPI 241550Z 2416/2512 20005KT 2SM BR OVC002
     FM241600 20005KT 4SM BR OVC005
     FM241700 20007KT P6SM BKN012
     FM241900 19005KT P6SM SCT012 BKN250
     FM250500 21008KT P6SM BKN025=



000
FTUS43 KILX 241500 AAC
TAFPIA
TAF AMD
KPIA 241549Z 2416/2512 21005KT 4SM BR OVC002
     FM241700 21007KT P6SM BKN008
     FM242000 19005KT P6SM SCT012 BKN250
     FM250100 20007KT P6SM BKN025=



000
FTUS43 KILX 241500 AAB
TAFDEC
TAF AMD
KDEC 241501Z 2415/2512 VRB04KT P6SM SCT006
     FM241700 22007KT P6SM SCT012
     FM242000 19005KT P6SM SCT012 BKN250
     FM250500 21008KT P6SM BKN025=



000
FTUS43 KILX 241500 AAB
TAFSPI
TAF AMD
KSPI 241500Z 2415/2512 VRB03KT 1/4SM FG OVC002
     FM241700 20005KT 3SM BR OVC005
     FM241900 20007KT P6SM BKN012
     FM242100 19005KT P6SM SCT012 BKN250
     FM250500 21008KT P6SM BKN025=



000
FTUS43 KILX 241400 AAB
TAFPIA
TAF AMD
KPIA 241458Z 2415/2512 VRB03KT 1/4SM FG OVC002
     FM241700 20005KT 3SM BR OVC005
     FM241900 21007KT P6SM BKN008
     FM242100 19005KT P6SM SCT012 BKN250
     FM250100 20007KT P6SM BKN025=



000
FTUS43 KILX 241300 AAA
TAFBMI
TAF AMD
KBMI 241347Z 2414/2512 VRB03KT P6SM SCT015
     FM241700 22008KT P6SM BKN010
     FM242100 21006KT P6SM SCT010 BKN250
     FM250400 21008KT P6SM BKN020=



000
FTUS43 KILX 241300 AAA
TAFPIA
TAF AMD
KPIA 241346Z 2414/2512 VRB03KT 1/4SM FG OVC002
     FM241500 VRB03KT 3SM BR OVC005
     FM241700 21007KT P6SM BKN008
     FM242100 19005KT P6SM SCT012 BKN250
     FM250100 20007KT P6SM BKN025=



000
FTUS43 KILX 241200 AAA
TAFDEC
TAF AMD
KDEC 241256Z 2413/2512 VRB03KT P6SM SCT006
     FM241400 VRB04KT P6SM OVC006
     FM241700 22007KT P6SM BKN012
     FM242000 19005KT P6SM SCT012 BKN250
     FM250500 21008KT P6SM BKN025=



000
FTUS43 KILX 241200 AAA
TAFSPI
TAF AMD
KSPI 241236Z 2413/2512 VRB03KT 1SM BR OVC002
      TEMPO 2413/2416 1/4SM FG
     FM241600 22007KT P6SM BKN012
     FM242100 19005KT P6SM SCT012 BKN250
     FM250500 21008KT P6SM BKN025=



000
FTUS43 KILX 241100
TAFSPI
TAF
KSPI 241120Z 2412/2512 VRB03KT 1SM BR OVC002
      TEMPO 2412/2416 3SM BR SCT002 OVC008
     FM241600 22007KT P6SM BKN012
     FM242100 19005KT P6SM SCT012 BKN250
     FM250500 21008KT P6SM BKN025=



000
FTUS43 KILX 241100
TAFDEC
TAF
KDEC 241120Z 2412/2512 VRB03KT P6SM OVC008
      TEMPO 2413/2415 3SM BR
     FM241700 22007KT P6SM BKN012
     FM242000 19005KT P6SM SCT012 BKN250
     FM250500 21008KT P6SM BKN025=



000
FTUS43 KILX 241100
TAFPIA
TAF
KPIA 241120Z 2412/2512 VRB03KT 3SM BR OVC005
     FM241700 21007KT P6SM BKN008
     FM242100 19005KT P6SM SCT012 BKN250
     FM250100 20007KT P6SM BKN025=



000
FTUS43 KILX 241100
TAFCMI
TAF
KCMI 241120Z 2412/2512 VRB03KT P6SM SCT040
      TEMPO 2413/2414 BKN010
     FM241400 23006KT P6SM SCT012 BKN250
     FM250400 20007KT P6SM BKN025=



000
FTUS43 KILX 241100
TAFBMI
TAF
KBMI 241120Z 2412/2512 VRB03KT P6SM SCT015
      TEMPO 2413/2415 3SM BR
     FM241700 22008KT P6SM BKN010
     FM242100 21006KT P6SM SCT010 BKN250
     FM250400 21008KT P6SM BKN020=



000
FTUS43 KILX 241000 AAD
TAFSPI
TAF AMD
KSPI 241048Z 2411/2506 VRB03KT P6SM OVC006
      TEMPO 2411/2414 1SM BR BKN002
     FM241600 22007KT P6SM BKN012
     FM242100 19005KT P6SM SCT012 BKN250
     FM250500 21008KT P6SM BKN025=



000
FTUS43 KILX 241000 AAB
TAFCMI
TAF AMD
KCMI 241020Z 2410/2506 VRB03KT P6SM SCT040
      TEMPO 2413/2414 BKN010
     FM241400 23006KT P6SM SCT012 BKN250
     FM250400 20007KT P6SM BKN025=



000
FTUS43 KILX 241000 AAB
TAFBMI
TAF AMD
KBMI 241020Z 2410/2506 VRB03KT P6SM SCT015
      TEMPO 2410/2414 BKN012
     FM241400 23006KT P6SM BKN005
     FM241700 22008KT P6SM BKN010
     FM242100 21006KT P6SM SCT010 BKN250
     FM250400 21008KT P6SM BKN020=



000
FTUS43 KILX 241000 AAC
TAFSPI
TAF AMD
KSPI 241020Z 2410/2506 VRB03KT P6SM OVC006
      TEMPO 2412/2414 1SM BR BKN002
     FM241600 22007KT P6SM BKN012
     FM242100 19005KT P6SM SCT012 BKN250
     FM250500 21008KT P6SM BKN025=



000
FTUS43 KILX 241000 AAB
TAFDEC
TAF AMD
KDEC 241020Z 2410/2506 VRB03KT P6SM SCT040
     FM241200 VRB03KT P6SM OVC008
     FM241700 22007KT P6SM BKN012
     FM242000 19005KT P6SM SCT012 BKN250
     FM250500 21008KT P6SM BKN025=



000
FTUS43 KILX 241000 AAC
TAFPIA
TAF AMD
KPIA 241020Z 2410/2506 VRB03KT P6SM SCT015
     FM241200 VRB03KT P6SM OVC006
     FM241700 21007KT P6SM BKN008
     FM242100 19005KT P6SM SCT012 BKN250
     FM250100 20007KT P6SM BKN025=



000
FTUS43 KILX 240800 AAA
TAFDEC
TAF AMD
KDEC 240803Z 2408/2506 VRB03KT P6SM OVC045
     FM241000 VRB03KT 4SM BR SCT008 BKN025
     FM241500 23008KT P6SM BKN025
     FM242000 21008KT P6SM SCT025=



000
FTUS43 KILX 240800 AAB
TAFPIA
TAF AMD
KPIA 240802Z 2408/2506 20005KT P6SM OVC015
     FM240900 VRB03KT 4SM BR SCT008 OVC012
      TEMPO 2410/2413 2SM BR BKN008
     FM241500 22008KT P6SM SCT025
     FM250000 21005KT P6SM BKN025=



000
FTUS43 KILX 240800 AAA
TAFBMI
TAF AMD
KBMI 240801Z 2408/2506 21008KT P6SM SCT025 OVC040
     FM240900 VRB03KT P6SM SCT008 BKN025
     FM241600 22009KT P6SM SCT025
     FM250200 21006KT P6SM BKN025=



000
FTUS43 KILX 240700 AAA
TAFPIA
TAF AMD
KPIA 240702Z 2407/2506 20005KT P6SM SCT025 OVC035
     FM240900 VRB03KT 4SM BR SCT008 BKN025
      TEMPO 2410/2413 2SM BR BKN008
     FM241500 22008KT P6SM SCT025
     FM250000 21005KT P6SM BKN025=



000
FTUS43 KILX 240700 AAB
TAFSPI
TAF AMD
KSPI 240701Z 2407/2506 20005KT P6SM BKN035
     FM240900 VRB03KT 4SM BR SCT008 BKN025
     FM241600 22007KT P6SM SCT025=



000
FTUS43 KILX 240600 AAA
TAFSPI
TAF AMD
KSPI 240600Z 2406/2506 20005KT P6SM BKN035
     FM240700 VRB03KT 4SM BR SCT008 BKN025
     FM241600 22007KT P6SM SCT025=



000
FTUS43 KILX 240600 AAA
TAFCMI
TAF AMD
KCMI 240600Z 2406/2506 20006KT P6SM VCSH BKN030
     FM241000 VRB04KT 4SM BR SCT008 BKN025
     FM241500 23007KT P6SM BKN025
     FM242100 21008KT P6SM SCT025=



000
FTUS43 KILX 240500
TAFDEC
TAF
KDEC 240530Z 2406/2506 20006KT P6SM BKN025
     FM240800 VRB04KT 4SM BR SCT008 BKN025
     FM241500 23008KT P6SM BKN025
     FM242000 21008KT P6SM SCT025=



000
FTUS43 KILX 240500
TAFPIA
TAF
KPIA 240530Z 2406/2506 20005KT P6SM SCT025 OVC035
     FM240700 VRB03KT 4SM BR SCT008 BKN025
      TEMPO 2410/2413 2SM BR BKN008
     FM241500 22008KT P6SM SCT025
     FM250000 21005KT P6SM BKN025=



000
FTUS43 KILX 240500
TAFBMI
TAF
KBMI 240530Z 2406/2506 21008KT P6SM VCSH SCT025 OVC040
      TEMPO 2406/2408 -SHRA BKN025
     FM240800 VRB03KT 4SM BR SCT008 BKN025
     FM241600 22009KT P6SM SCT025
     FM250200 21006KT P6SM BKN025=



000
FTUS43 KILX 240500
TAFCMI
TAF
KCMI 240530Z 2406/2506 20006KT P6SM VCSH BKN050
     FM241000 VRB04KT 4SM BR SCT008 BKN025
     FM241500 23007KT P6SM BKN025
     FM242100 21008KT P6SM SCT025=



000
FTUS43 KILX 240500
TAFSPI
TAF
KSPI 240530Z 2406/2506 20005KT P6SM BKN025 BKN035
     FM240700 VRB03KT 4SM BR SCT008 BKN025
     FM241600 22007KT P6SM SCT025=



000
FTUS43 KILX 240300 AAB
TAFSPI
TAF AMD
KSPI 240326Z 2403/2424 20005KT P6SM BKN025 BKN035
     FM240600 VRB03KT 4SM BR SCT008 BKN025
     FM241600 23007KT P6SM SCT025=



000
FTUS43 KILX 240300 AAB
TAFSPI
TAF AMD
KSPI 240326Z 2403/2424 20005KT P6SM BKN025 BKN035
     FM240600 VRB03KT 4SM BR SCT008 BKN025
     FM241600 23007KT P6SM SCT025=



000
FTUS43 KILX 240300 AAC
TAFBMI
TAF AMD
KBMI 240325Z 2403/2424 21005KT P6SM VCSH SCT025 OVC060
      TEMPO 2403/2405 BKN025
     FM240500 VRB03KT 3SM BR SCT008 BKN025
     FM241600 24008KT P6SM SCT025=



000
FTUS43 KILX 240300 AAC
TAFBMI
TAF AMD
KBMI 240325Z 2403/2424 21005KT P6SM VCSH SCT025 OVC060
      TEMPO 2403/2405 BKN025
     FM240500 VRB03KT 3SM BR SCT008 BKN025
     FM241600 24008KT P6SM SCT025=



000
FTUS43 KILX 240300 AAB
TAFPIA
TAF AMD
KPIA 240324Z 2403/2424 20005KT P6SM BKN025 OVC035
     FM240500 VRB03KT 4SM BR SCT008 BKN025
     FM241500 24007KT P6SM SCT025=



000
FTUS43 KILX 240300 AAB
TAFPIA
TAF AMD
KPIA 240324Z 2403/2424 20005KT P6SM BKN025 OVC035
     FM240500 VRB03KT 4SM BR SCT008 BKN025
     FM241500 24007KT P6SM SCT025=



000
FTUS43 KILX 240100 AAA
TAFSPI
TAF AMD
KSPI 240146Z 2402/2424 20005KT P6SM VCSH SCT025 BKN035
     FM240230 20005KT P6SM SCT025 BKN035
     FM240600 VRB03KT 4SM BR SCT008 BKN025
     FM241600 23007KT P6SM SCT025=



000
FTUS43 KILX 240100 AAB
TAFBMI
TAF AMD
KBMI 240143Z 2402/2424 21005KT P6SM VCSH SCT025 OVC070
      TEMPO 2402/2404 BKN025
     FM240500 VRB03KT 3SM BR SCT008 BKN025
     FM241600 24008KT P6SM SCT025=



000
FTUS43 KILX 240100 AAA
TAFPIA
TAF AMD
KPIA 240142Z 2402/2424 20005KT P6SM SCT025 BKN035
     FM240500 VRB03KT 4SM BR SCT008 BKN025
     FM241500 24007KT P6SM SCT025=



000
FTUS43 KILX 240100 AAA
TAFBMI
TAF AMD
KBMI 240102Z 2401/2424 22005KT P6SM VCSH BKN025 OVC070
     FM240500 VRB03KT 3SM BR SCT008 BKN025
     FM241600 24008KT P6SM SCT025=



000
FTUS43 KILX 232300
TAFBMI
TAF
KBMI 232324Z 2400/2424 20007KT P6SM VCSH BKN050
     FM240200 22005KT P6SM VCSH BKN025
     FM240600 VRB03KT 3SM BR SCT008 BKN025
     FM241600 24008KT P6SM SCT025=



000
FTUS43 KILX 232300
TAFPIA
TAF
KPIA 232324Z 2400/2424 20006KT P6SM VCSH BKN050
     FM240100 22005KT P6SM VCSH BKN025
     FM240500 VRB03KT 4SM BR SCT008 BKN025
     FM241500 24007KT P6SM SCT025=



000
FTUS43 KILX 232300
TAFDEC
TAF
KDEC 232324Z 2400/2424 20005KT P6SM BKN100
     FM240100 20005KT P6SM VCSH BKN050
     FM240400 VRB03KT P6SM BKN025
     FM240800 VRB03KT 4SM BR SCT008 BKN025
     FM241500 23008KT P6SM BKN025=



000
FTUS43 KILX 232300
TAFCMI
TAF
KCMI 232324Z 2400/2424 21006KT P6SM BKN100
     FM240200 20006KT P6SM VCSH BKN050
     FM240800 VRB03KT P6SM BKN025
     FM241000 VRB03KT 4SM BR SCT008 BKN025
     FM241500 23007KT P6SM BKN025=



000
FTUS43 KILX 232300
TAFSPI
TAF
KSPI 232324Z 2400/2424 19006KT P6SM VCSH BKN040
     FM240200 21005KT P6SM VCSH BKN025
     FM240600 VRB03KT 4SM BR SCT008 BKN025
     FM241600 23007KT P6SM SCT025=



000
FTUS43 KILX 231700 RRA
TAFCMI
TAF
KCMI 231743Z 2318/2418 20008KT P6SM BKN150
     FM240200 20008KT P6SM VCSH BKN060
     FM240800 VRB03KT P6SM BKN025
     FM241000 VRB03KT 4SM BR SCT008 BKN025
     FM241500 25005KT P6SM BKN025=



000
FTUS43 KILX 231700 RRA
TAFBMI
TAF
KBMI 231743Z 2318/2418 20012KT P6SM BKN150
     FM240000 VRB03KT P6SM VCSH BKN060
     FM240400 VRB03KT P6SM VCSH BKN025
     FM240800 VRB03KT 3SM BR SCT008 BKN025
     FM241600 25005KT P6SM SCT025=



000
FTUS43 KILX 231700 RRA
TAFSPI
TAF
KSPI 231743Z 2318/2418 19008KT P6SM BKN150
     FM232200 20008KT P6SM VCSH BKN060
     FM240400 VRB03KT P6SM VCSH BKN025
     FM240800 VRB03KT 4SM BR SCT008 BKN025
     FM241600 25005KT P6SM SCT025=



000
FTUS43 KILX 231700 RRA
TAFPIA
TAF
KPIA 231743Z 2318/2418 19010KT P6SM BKN150
     FM232000 20010KT P6SM VCSH BKN060
     FM240100 VRB03KT P6SM VCSH BKN025
     FM240500 VRB03KT 4SM BR SCT008 BKN025
     FM241500 25005KT P6SM SCT025=



000
FTUS43 KILX 231700 RRA
TAFDEC
TAF
KDEC 231743Z 2318/2418 19008KT P6SM BKN150
     FM240000 20008KT P6SM VCSH BKN060
     FM240600 VRB03KT P6SM BKN025
     FM240900 VRB03KT 4SM BR SCT008 BKN025
     FM241500 25005KT P6SM BKN025=



000
FTUS43 KILX 231700 RRA
TAFCMI
TAF
KCMI 231743Z 2318/2418 20008KT P6SM BKN150
     FM240200 20008KT P6SM VCSH BKN060
     FM240800 VRB03KT P6SM BKN025
     FM241000 VRB03KT 4SM BR SCT008 BKN025
     FM241500 25005KT P6SM BKN025=



000
FTUS43 KILX 231700 RRA
TAFDEC
TAF
KDEC 231743Z 2318/2418 19008KT P6SM BKN150
     FM240000 20008KT P6SM VCSH BKN060
     FM240600 VRB03KT P6SM BKN025
     FM240900 VRB03KT 4SM BR SCT008 BKN025
     FM241500 25005KT P6SM BKN025=



000
FTUS43 KILX 231700 RRA
TAFPIA
TAF
KPIA 231743Z 2318/2418 19010KT P6SM BKN150
     FM232000 20010KT P6SM VCSH BKN060
     FM240100 VRB03KT P6SM VCSH BKN025
     FM240500 VRB03KT 4SM BR SCT008 BKN025
     FM241500 25005KT P6SM SCT025=



000
FTUS43 KILX 231700 RRA
TAFSPI
TAF
KSPI 231743Z 2318/2418 19008KT P6SM BKN150
     FM232200 20008KT P6SM VCSH BKN060
     FM240400 VRB03KT P6SM VCSH BKN025
     FM240800 VRB03KT 4SM BR SCT008 BKN025
     FM241600 25005KT P6SM SCT025=



000
FTUS43 KILX 231700 RRA
TAFBMI
TAF
KBMI 231743Z 2318/2418 20012KT P6SM BKN150
     FM240000 VRB03KT P6SM VCSH BKN060
     FM240400 VRB03KT P6SM VCSH BKN025
     FM240800 VRB03KT 3SM BR SCT008 BKN025
     FM241600 25005KT P6SM SCT025=



000
FTUS43 KILX 231100
TAFBMI
TAF
KBMI 231125Z 2312/2412 17007KT P6SM BKN250
     FM231500 20012KT P6SM SCT070 BKN200
     FM240300 VRB03KT P6SM BKN025
      TEMPO 2408/2412 4SM BR=



000
FTUS43 KILX 231100
TAFSPI
TAF
KSPI 231125Z 2312/2412 16005KT P6SM BKN250
     FM231500 19009KT P6SM SCT070 BKN200
     FM240400 VRB03KT P6SM BKN025
      TEMPO 2408/2412 4SM BR=



000
FTUS43 KILX 231100
TAFCMI
TAF
KCMI 231125Z 2312/2412 13005KT P6SM BKN250
     FM231600 19009KT P6SM SCT070 BKN200
     FM240400 VRB03KT P6SM BKN025
      TEMPO 2408/2412 4SM BR=



000
FTUS43 KILX 231100
TAFDEC
TAF
KDEC 231125Z 2312/2412 16005KT P6SM BKN250
     FM231500 19009KT P6SM SCT070 BKN200
     FM240400 VRB03KT P6SM BKN025
      TEMPO 2408/2412 4SM BR=



000
FTUS43 KILX 231100
TAFPIA
TAF
KPIA 231125Z 2312/2412 16005KT P6SM BKN250
     FM231500 19010KT P6SM BKN150
     FM232000 20010KT P6SM VCSH BKN040
     FM240100 VRB03KT P6SM BKN025
      TEMPO 2408/2412 4SM BR=



000
FTUS43 KILX 230500
TAFSPI
TAF
KSPI 230527Z 2306/2406 13004KT P6SM SCT250
     FM231500 18009KT P6SM BKN200
     FM232100 18009KT P6SM VCSH SCT030 BKN040
     FM240100 22005KT P6SM BKN035=



000
FTUS43 KILX 230500
TAFBMI
TAF
KBMI 230527Z 2306/2406 15004KT P6SM SCT250
     FM231500 19010G15KT P6SM BKN200
     FM232100 20010KT P6SM VCSH SCT030 BKN040
     FM240200 22006KT P6SM BKN035=



000
FTUS43 KILX 230500
TAFDEC
TAF
KDEC 230527Z 2306/2406 11005KT P6SM SCT250
     FM231500 19010KT P6SM BKN200
     FM232300 19008KT P6SM VCSH SCT030 BKN040
     FM240300 22005KT P6SM BKN035=



000
FTUS43 KILX 230500
TAFPIA
TAF
KPIA 230527Z 2306/2406 15004KT P6SM BKN250
     FM231500 19010G15KT P6SM BKN200
     FM232000 18010KT P6SM VCSH SCT030 BKN040
     FM240100 23005KT P6SM BKN035=



000
FTUS43 KILX 230500
TAFCMI
TAF
KCMI 230527Z 2306/2406 12004KT P6SM SCT250
     FM231500 18009KT P6SM BKN200
     FM240000 19007KT P6SM VCSH SCT030 BKN040=



000
FTUS43 KILX 222300
TAFDEC
TAF
KDEC 222327Z 2300/2324 11005KT P6SM SKC
     FM230900 16004KT P6SM SCT250
     FM231800 19009KT P6SM BKN250=



000
FTUS43 KILX 222300
TAFSPI
TAF
KSPI 222327Z 2300/2324 12005KT P6SM SKC
     FM230800 14004KT P6SM SCT250
     FM231200 16008KT P6SM SCT250
     FM232100 18009KT P6SM VCSH SCT030 BKN050=



000
FTUS43 KILX 222300
TAFBMI
TAF
KBMI 222327Z 2300/2324 13005KT P6SM SKC
     FM230600 15006KT P6SM FEW250
     FM231500 19010KT P6SM BKN250
     FM232100 20010KT P6SM VCSH SCT030 BKN050=



000
FTUS43 KILX 222300
TAFPIA
TAF
KPIA 222327Z 2300/2324 13004KT P6SM SKC
     FM230600 14004KT P6SM SCT250
     FM231200 17005KT P6SM BKN250
     FM232000 18009KT P6SM VCSH SCT030 BKN050=



000
FTUS43 KILX 222300
TAFCMI
TAF
KCMI 222327Z 2300/2324 10004KT P6SM SKC
     FM230900 14005KT P6SM SCT250
     FM231500 16007KT P6SM SCT250
     FM231800 19009KT P6SM BKN250=



000
FTUS43 KILX 221700
TAFSPI
TAF
KSPI 221730Z 2218/2318 13007KT P6SM SKC
     FM230800 14004KT P6SM BKN250=



000
FTUS43 KILX 221700
TAFCMI
TAF
KCMI 221730Z 2218/2318 09007KT P6SM SKC
     FM230900 12005KT P6SM SCT250=



000
FTUS43 KILX 221700
TAFBMI
TAF
KBMI 221730Z 2218/2318 13008KT P6SM SKC
     FM230800 15006KT P6SM BKN250=



000
FTUS43 KILX 221700
TAFBMI
TAF
KBMI 221730Z 2218/2318 13008KT P6SM SKC
     FM230800 15006KT P6SM BKN250=



000
FTUS43 KILX 221700
TAFDEC
TAF
KDEC 221730Z 2218/2318 11007KT P6SM SKC
     FM230900 14004KT P6SM SCT250=



000
FTUS43 KILX 221700
TAFDEC
TAF
KDEC 221730Z 2218/2318 11007KT P6SM SKC
     FM230900 14004KT P6SM SCT250=



000
FTUS43 KILX 221700
TAFSPI
TAF
KSPI 221730Z 2218/2318 13007KT P6SM SKC
     FM230800 14004KT P6SM BKN250=



000
FTUS43 KILX 221700
TAFCMI
TAF
KCMI 221730Z 2218/2318 09007KT P6SM SKC
     FM230900 12005KT P6SM SCT250=



000
FTUS43 KILX 221700
TAFPIA
TAF
KPIA 221730Z 2218/2318 15007KT P6SM SKC
     FM230600 14004KT P6SM BKN250=



000
FTUS43 KILX 221700
TAFPIA
TAF
KPIA 221730Z 2218/2318 15007KT P6SM SKC
     FM230600 14004KT P6SM BKN250=



    US Dept of Commerce
    National Oceanic and Atmospheric Administration
    National Weather Service
    1325 East West Highway
    Silver Spring, MD 20910
    Page Author: NWS Internet Services Team
Disclaimer
Information Quality
Credits
Glossary
Privacy Policy
Freedom of Information Act (FOIA)
About Us
Career Opportunities